ボルドー の空港の天気 - METARとTAF

ボルドー・メリニャック空港 ( LFBD / BOD ) - フランス ボルドー
飛行場実況気象(Metar)
観測時間09/25 23:30 CEST (09/25 21:30 UTC)
風向・風速不定 1m/s
視程10km以上
天気現象
なし
気温13℃
湿度82%
気圧1017hPa
METARLFBD 252130Z AUTO VRB02KT CAVOK 13/10 Q1017 NOSIG
過去の天気等 Google飛行場航空写真 Wunderground天気予報

過去48時間のMETAR

飛行場予報(TAF)
発表時間: 9/25 19:00 CEST (9/25 17:00 UTC)
予報対象時間: 25日20時 CEST ~ 27日2時 CEST
風向・風速北西 3m/s
視程10km以上
なし
25日22時 CEST ~ 25日24時 CEST に徐々に
風向・風速不定 1m/s
26日4時 CEST ~ 26日10時 CEST に 確率 40% で一時的に
視程3000m
天気現象もや
なし
26日4時 CEST ~ 26日9時 CEST に 確率 30% で一時的に
視程800m
天気現象
26日9時 CEST ~ 26日11時 CEST に徐々に
風向・風速西 5m/s
全天の8割程度の雲 雲底高度 760m
26日9時 CEST ~ 26日23時 CEST に一時的に
風向・風速西 8m/s 瞬間風速 13m/s
天気現象弱いしゅう雨
全天の8割程度の雲 雲底高度 300m
全天の8割程度の塔状積雲 雲底高度 610m
TAF LFBD 251700Z 2518/2624 32005KT CAVOK TX22/2614Z TN09/2605Z
BECMG 2520/2522 VRB02KT
PROB40 TEMPO 2602/2608 3000 BR NSC
PROB30 TEMPO 2602/2607 0800 FG VV///
BECMG 2607/2609 28010KT BKN025
TEMPO 2607/2621 27015G25KT -SHRA BKN010 BKN020TCU